sensor_id;sensor_type;location;lat;lon;timestamp;temperature;humidity
11989;DHT22;6054;50.966;7.094;2023-12-29T00:01:04;17.60;47.90
11989;DHT22;6054;50.966;7.094;2023-12-29T00:03:31;17.50;47.80
11989;DHT22;6054;50.966;7.094;2023-12-29T00:05:58;17.60;47.80
11989;DHT22;6054;50.966;7.094;2023-12-29T00:08:25;17.60;48.00
11989;DHT22;6054;50.966;7.094;2023-12-29T00:10:51;17.60;48.30
11989;DHT22;6054;50.966;7.094;2023-12-29T00:13:18;17.60;48.20
11989;DHT22;6054;50.966;7.094;2023-12-29T00:15:51;17.60;48.90
11989;DHT22;6054;50.966;7.094;2023-12-29T00:18:19;17.60;48.60
11989;DHT22;6054;50.966;7.094;2023-12-29T00:20:46;17.60;48.40
11989;DHT22;6054;50.966;7.094;2023-12-29T00:23:13;17.60;48.20
11989;DHT22;6054;50.966;7.094;2023-12-29T00:25:40;17.60;48.00
11989;DHT22;6054;50.966;7.094;2023-12-29T00:28:06;17.60;48.00
11989;DHT22;6054;50.966;7.094;2023-12-29T00:30:33;17.60;48.10
11989;DHT22;6054;50.966;7.094;2023-12-29T00:33:00;17.60;48.00
11989;DHT22;6054;50.966;7.094;2023-12-29T00:35:28;17.60;48.10
11989;DHT22;6054;50.966;7.094;2023-12-29T00:37:55;17.60;48.00
11989;DHT22;6054;50.966;7.094;2023-12-29T00:40:22;17.90;48.30
11989;DHT22;6054;50.966;7.094;2023-12-29T00:42:49;17.60;48.00
11989;DHT22;6054;50.966;7.094;2023-12-29T00:45:15;17.60;48.20
11989;DHT22;6054;50.966;7.094;2023-12-29T00:47:42;17.60;47.90
11989;DHT22;6054;50.966;7.094;2023-12-29T00:50:09;17.60;48.00
11989;DHT22;6054;50.966;7.094;2023-12-29T00:52:38;17.60;47.70
11989;DHT22;6054;50.966;7.094;2023-12-29T00:55:05;17.70;47.90
11989;DHT22;6054;50.966;7.094;2023-12-29T00:57:32;17.70;48.40
11989;DHT22;6054;50.966;7.094;2023-12-29T00:59:59;17.70;47.60
11989;DHT22;6054;50.966;7.094;2023-12-29T01:02:26;17.70;48.20
11989;DHT22;6054;50.966;7.094;2023-12-29T01:04:53;17.70;47.90
11989;DHT22;6054;50.966;7.094;2023-12-29T01:07:20;17.70;48.10
11989;DHT22;6054;50.966;7.094;2023-12-29T01:09:48;17.70;48.00
11989;DHT22;6054;50.966;7.094;2023-12-29T01:12:15;17.70;47.90
11989;DHT22;6054;50.966;7.094;2023-12-29T01:14:42;17.70;48.00
11989;DHT22;6054;50.966;7.094;2023-12-29T01:17:08;17.70;48.00
11989;DHT22;6054;50.966;7.094;2023-12-29T01:19:35;17.70;47.80
11989;DHT22;6054;50.966;7.094;2023-12-29T01:22:02;17.70;48.10
11989;DHT22;6054;50.966;7.094;2023-12-29T01:24:30;17.70;48.10
11989;DHT22;6054;50.966;7.094;2023-12-29T01:27:00;17.70;48.50
11989;DHT22;6054;50.966;7.094;2023-12-29T01:29:29;17.90;48.50
11989;DHT22;6054;50.966;7.094;2023-12-29T01:31:56;17.70;48.20
11989;DHT22;6054;50.966;7.094;2023-12-29T01:34:23;17.70;48.10
11989;DHT22;6054;50.966;7.094;2023-12-29T01:36:51;17.70;48.20
11989;DHT22;6054;50.966;7.094;2023-12-29T01:39:18;17.70;48.20
11989;DHT22;6054;50.966;7.094;2023-12-29T01:41:44;17.70;48.20
11989;DHT22;6054;50.966;7.094;2023-12-29T01:44:22;17.70;48.20
11989;DHT22;6054;50.966;7.094;2023-12-29T01:46:51;17.80;48.60
11989;DHT22;6054;50.966;7.094;2023-12-29T01:49:19;17.80;48.60
11989;DHT22;6054;50.966;7.094;2023-12-29T01:51:52;17.80;48.60
11989;DHT22;6054;50.966;7.094;2023-12-29T01:54:20;17.80;48.20
11989;DHT22;6054;50.966;7.094;2023-12-29T01:56:48;17.80;48.30
11989;DHT22;6054;50.966;7.094;2023-12-29T01:59:16;17.80;48.40
11989;DHT22;6054;50.966;7.094;2023-12-29T02:01:45;17.70;48.20
11989;DHT22;6054;50.966;7.094;2023-12-29T02:04:12;17.90;48.30
11989;DHT22;6054;50.966;7.094;2023-12-29T02:06:40;17.80;48.50
11989;DHT22;6054;50.966;7.094;2023-12-29T02:09:07;17.80;48.40
11989;DHT22;6054;50.966;7.094;2023-12-29T02:11:34;17.80;48.40
11989;DHT22;6054;50.966;7.094;2023-12-29T02:14:01;17.80;48.20
11989;DHT22;6054;50.966;7.094;2023-12-29T02:16:33;17.80;48.40
11989;DHT22;6054;50.966;7.094;2023-12-29T02:19:07;17.80;48.90
11989;DHT22;6054;50.966;7.094;2023-12-29T02:21:36;17.90;48.70
11989;DHT22;6054;50.966;7.094;2023-12-29T02:24:03;17.80;48.30
11989;DHT22;6054;50.966;7.094;2023-12-29T02:26:33;17.90;48.20
11989;DHT22;6054;50.966;7.094;2023-12-29T02:29:02;17.80;48.50
11989;DHT22;6054;50.966;7.094;2023-12-29T02:31:31;18.10;48.50
11989;DHT22;6054;50.966;7.094;2023-12-29T02:34:00;17.80;48.50
11989;DHT22;6054;50.966;7.094;2023-12-29T02:36:32;17.80;48.80
11989;DHT22;6054;50.966;7.094;2023-12-29T02:38:59;17.80;48.50
11989;DHT22;6054;50.966;7.094;2023-12-29T02:41:26;17.90;48.60
11989;DHT22;6054;50.966;7.094;2023-12-29T02:43:54;17.90;48.40
11989;DHT22;6054;50.966;7.094;2023-12-29T02:46:21;17.90;48.20
11989;DHT22;6054;50.966;7.094;2023-12-29T02:48:48;17.90;48.00
11989;DHT22;6054;50.966;7.094;2023-12-29T02:51:15;17.90;48.30
11989;DHT22;6054;50.966;7.094;2023-12-29T02:53:42;17.70;47.10
11989;DHT22;6054;50.966;7.094;2023-12-29T02:56:09;17.90;47.70
11989;DHT22;6054;50.966;7.094;2023-12-29T02:58:35;17.90;48.30
11989;DHT22;6054;50.966;7.094;2023-12-29T03:01:03;17.90;48.40
11989;DHT22;6054;50.966;7.094;2023-12-29T03:03:30;18.10;49.20
11989;DHT22;6054;50.966;7.094;2023-12-29T03:05:57;17.90;48.30
11989;DHT22;6054;50.966;7.094;2023-12-29T03:08:24;17.90;48.40
11989;DHT22;6054;50.966;7.094;2023-12-29T03:10:50;17.90;48.10
11989;DHT22;6054;50.966;7.094;2023-12-29T03:13:17;17.90;48.20
11989;DHT22;6054;50.966;7.094;2023-12-29T03:15:44;17.90;48.10
11989;DHT22;6054;50.966;7.094;2023-12-29T03:18:12;17.90;48.00
11989;DHT22;6054;50.966;7.094;2023-12-29T03:20:39;17.90;48.00
11989;DHT22;6054;50.966;7.094;2023-12-29T03:23:06;17.90;48.10
11989;DHT22;6054;50.966;7.094;2023-12-29T03:25:32;18.20;48.30
11989;DHT22;6054;50.966;7.094;2023-12-29T03:27:59;17.90;48.00
11989;DHT22;6054;50.966;7.094;2023-12-29T03:30:26;18.00;47.70
11989;DHT22;6054;50.966;7.094;2023-12-29T03:32:52;18.00;48.00
11989;DHT22;6054;50.966;7.094;2023-12-29T03:35:21;18.00;48.10
11989;DHT22;6054;50.966;7.094;2023-12-29T03:37:47;18.00;48.20
11989;DHT22;6054;50.966;7.094;2023-12-29T03:40:14;18.00;47.70
11989;DHT22;6054;50.966;7.094;2023-12-29T03:42:41;18.00;47.80
11989;DHT22;6054;50.966;7.094;2023-12-29T03:45:09;18.00;47.90
11989;DHT22;6054;50.966;7.094;2023-12-29T03:47:36;18.00;48.20
11989;DHT22;6054;50.966;7.094;2023-12-29T03:50:03;18.00;47.90
11989;DHT22;6054;50.966;7.094;2023-12-29T03:52:31;18.00;48.40
11989;DHT22;6054;50.966;7.094;2023-12-29T03:54:58;18.00;48.10
11989;DHT22;6054;50.966;7.094;2023-12-29T03:57:25;18.00;48.10
11989;DHT22;6054;50.966;7.094;2023-12-29T03:59:51;18.20;47.60
11989;DHT22;6054;50.966;7.094;2023-12-29T04:02:18;18.00;47.70
11989;DHT22;6054;50.966;7.094;2023-12-29T04:04:48;18.00;47.90
11989;DHT22;6054;50.966;7.094;2023-12-29T04:07:15;18.10;48.10
11989;DHT22;6054;50.966;7.094;2023-12-29T04:09:43;18.00;48.60
11989;DHT22;6054;50.966;7.094;2023-12-29T04:12:10;18.00;47.70
11989;DHT22;6054;50.966;7.094;2023-12-29T04:14:37;18.00;48.00
11989;DHT22;6054;50.966;7.094;2023-12-29T04:17:04;18.00;47.90
11989;DHT22;6054;50.966;7.094;2023-12-29T04:19:39;18.00;48.10
11989;DHT22;6054;50.966;7.094;2023-12-29T04:22:06;18.10;48.40
11989;DHT22;6054;50.966;7.094;2023-12-29T04:24:33;18.00;48.30
11989;DHT22;6054;50.966;7.094;2023-12-29T04:27:01;18.30;48.30
11989;DHT22;6054;50.966;7.094;2023-12-29T04:29:27;18.00;48.30
11989;DHT22;6054;50.966;7.094;2023-12-29T04:31:54;18.00;48.30
11989;DHT22;6054;50.966;7.094;2023-12-29T04:34:21;18.10;48.30
11989;DHT22;6054;50.966;7.094;2023-12-29T04:36:48;18.00;48.50
11989;DHT22;6054;50.966;7.094;2023-12-29T04:39:15;18.10;48.40
11989;DHT22;6054;50.966;7.094;2023-12-29T04:41:41;18.10;48.30
11989;DHT22;6054;50.966;7.094;2023-12-29T04:44:10;18.10;48.40
11989;DHT22;6054;50.966;7.094;2023-12-29T04:46:36;18.20;48.50
11989;DHT22;6054;50.966;7.094;2023-12-29T04:49:03;18.20;48.60
11989;DHT22;6054;50.966;7.094;2023-12-29T04:51:30;18.10;48.20
11989;DHT22;6054;50.966;7.094;2023-12-29T04:53:56;18.10;48.20
11989;DHT22;6054;50.966;7.094;2023-12-29T04:56:23;18.20;48.50
11989;DHT22;6054;50.966;7.094;2023-12-29T04:58:51;18.20;48.30
11989;DHT22;6054;50.966;7.094;2023-12-29T05:01:19;18.20;48.70
11989;DHT22;6054;50.966;7.094;2023-12-29T05:03:46;18.10;48.60
11989;DHT22;6054;50.966;7.094;2023-12-29T05:06:13;18.40;48.60
11989;DHT22;6054;50.966;7.094;2023-12-29T05:08:39;18.20;48.50
11989;DHT22;6054;50.966;7.094;2023-12-29T05:11:06;18.20;48.70
11989;DHT22;6054;50.966;7.094;2023-12-29T05:13:33;18.20;48.70
11989;DHT22;6054;50.966;7.094;2023-12-29T05:16:00;18.20;48.50
11989;DHT22;6054;50.966;7.094;2023-12-29T05:18:30;18.20;48.50
11989;DHT22;6054;50.966;7.094;2023-12-29T05:20:57;18.20;48.80
11989;DHT22;6054;50.966;7.094;2023-12-29T05:23:24;18.20;48.70
11989;DHT22;6054;50.966;7.094;2023-12-29T05:25:52;18.20;48.60
11989;DHT22;6054;50.966;7.094;2023-12-29T05:28:18;18.20;48.70
11989;DHT22;6054;50.966;7.094;2023-12-29T05:30:45;18.30;48.80
11989;DHT22;6054;50.966;7.094;2023-12-29T05:33:12;18.20;48.70
11989;DHT22;6054;50.966;7.094;2023-12-29T05:35:40;18.20;48.70
11989;DHT22;6054;50.966;7.094;2023-12-29T05:38:07;18.20;48.50
11989;DHT22;6054;50.966;7.094;2023-12-29T05:40:34;18.20;48.50
11989;DHT22;6054;50.966;7.094;2023-12-29T05:43:00;18.20;48.40
11989;DHT22;6054;50.966;7.094;2023-12-29T05:45:27;18.20;48.50
11989;DHT22;6054;50.966;7.094;2023-12-29T05:47:54;18.20;48.70
11989;DHT22;6054;50.966;7.094;2023-12-29T05:50:21;18.20;48.30
11989;DHT22;6054;50.966;7.094;2023-12-29T05:52:49;18.20;48.20
11989;DHT22;6054;50.966;7.094;2023-12-29T05:55:17;18.20;48.10
11989;DHT22;6054;50.966;7.094;2023-12-29T05:57:44;18.20;48.70
11989;DHT22;6054;50.966;7.094;2023-12-29T06:00:12;18.20;48.40
11989;DHT22;6054;50.966;7.094;2023-12-29T06:02:40;18.20;48.90
11989;DHT22;6054;50.966;7.094;2023-12-29T06:05:08;18.10;48.60
11989;DHT22;6054;50.966;7.094;2023-12-29T06:07:35;18.10;48.80
11989;DHT22;6054;50.966;7.094;2023-12-29T06:10:04;18.10;48.50
11989;DHT22;6054;50.966;7.094;2023-12-29T06:12:31;18.10;48.90
11989;DHT22;6054;50.966;7.094;2023-12-29T06:14:58;18.10;48.40
11989;DHT22;6054;50.966;7.094;2023-12-29T06:17:25;18.10;49.10
11989;DHT22;6054;50.966;7.094;2023-12-29T06:19:51;18.10;48.40
11989;DHT22;6054;50.966;7.094;2023-12-29T06:22:19;18.10;48.70
11989;DHT22;6054;50.966;7.094;2023-12-29T06:24:46;18.10;48.50
11989;DHT22;6054;50.966;7.094;2023-12-29T06:27:14;18.10;48.30
11989;DHT22;6054;50.966;7.094;2023-12-29T06:29:41;18.10;49.00
11989;DHT22;6054;50.966;7.094;2023-12-29T06:32:08;18.10;48.80
11989;DHT22;6054;50.966;7.094;2023-12-29T06:34:35;18.00;48.30
11989;DHT22;6054;50.966;7.094;2023-12-29T06:37:02;18.10;48.50
11989;DHT22;6054;50.966;7.094;2023-12-29T06:39:29;18.00;48.50
11989;DHT22;6054;50.966;7.094;2023-12-29T06:41:56;18.00;48.40
11989;DHT22;6054;50.966;7.094;2023-12-29T06:44:24;18.00;48.30
11989;DHT22;6054;50.966;7.094;2023-12-29T06:46:51;18.00;48.40
11989;DHT22;6054;50.966;7.094;2023-12-29T06:49:18;18.00;47.40
11989;DHT22;6054;50.966;7.094;2023-12-29T06:51:45;18.10;48.40
11989;DHT22;6054;50.966;7.094;2023-12-29T06:54:12;18.10;47.30
11989;DHT22;6054;50.966;7.094;2023-12-29T06:56:39;18.00;48.30
11989;DHT22;6054;50.966;7.094;2023-12-29T06:59:06;18.10;48.10
11989;DHT22;6054;50.966;7.094;2023-12-29T07:01:38;18.10;48.60
11989;DHT22;6054;50.966;7.094;2023-12-29T07:04:06;18.10;48.50
11989;DHT22;6054;50.966;7.094;2023-12-29T07:06:35;18.10;48.20
11989;DHT22;6054;50.966;7.094;2023-12-29T07:09:02;18.10;48.30
11989;DHT22;6054;50.966;7.094;2023-12-29T07:11:29;18.20;48.40
11989;DHT22;6054;50.966;7.094;2023-12-29T07:13:56;18.20;48.50
11989;DHT22;6054;50.966;7.094;2023-12-29T07:16:23;18.10;48.20
11989;DHT22;6054;50.966;7.094;2023-12-29T07:18:51;18.10;47.90
11989;DHT22;6054;50.966;7.094;2023-12-29T07:21:18;18.20;48.20
11989;DHT22;6054;50.966;7.094;2023-12-29T07:23:45;18.10;48.00
11989;DHT22;6054;50.966;7.094;2023-12-29T07:26:12;18.20;48.60
11989;DHT22;6054;50.966;7.094;2023-12-29T07:28:39;18.10;48.20
11989;DHT22;6054;50.966;7.094;2023-12-29T07:31:06;18.20;48.40
11989;DHT22;6054;50.966;7.094;2023-12-29T07:33:33;18.20;48.20
11989;DHT22;6054;50.966;7.094;2023-12-29T07:36:02;18.20;48.20
11989;DHT22;6054;50.966;7.094;2023-12-29T07:38:29;18.20;48.60
11989;DHT22;6054;50.966;7.094;2023-12-29T07:40:56;18.20;48.40
11989;DHT22;6054;50.966;7.094;2023-12-29T07:43:22;18.30;48.60
11989;DHT22;6054;50.966;7.094;2023-12-29T07:45:49;18.20;48.60
11989;DHT22;6054;50.966;7.094;2023-12-29T07:48:16;18.20;48.70
11989;DHT22;6054;50.966;7.094;2023-12-29T07:50:43;18.40;48.90
11989;DHT22;6054;50.966;7.094;2023-12-29T07:53:11;18.20;48.80
11989;DHT22;6054;50.966;7.094;2023-12-29T07:55:38;18.20;48.60
11989;DHT22;6054;50.966;7.094;2023-12-29T07:58:06;18.10;49.20
11989;DHT22;6054;50.966;7.094;2023-12-29T08:00:35;18.10;49.10
11989;DHT22;6054;50.966;7.094;2023-12-29T08:03:03;18.20;49.30
11989;DHT22;6054;50.966;7.094;2023-12-29T08:05:31;18.20;49.40
11989;DHT22;6054;50.966;7.094;2023-12-29T08:07:57;18.20;49.50
11989;DHT22;6054;50.966;7.094;2023-12-29T08:10:27;18.20;50.00
11989;DHT22;6054;50.966;7.094;2023-12-29T08:12:53;18.10;49.60
11989;DHT22;6054;50.966;7.094;2023-12-29T08:15:20;18.10;50.40
11989;DHT22;6054;50.966;7.094;2023-12-29T08:17:48;18.00;50.50
11989;DHT22;6054;50.966;7.094;2023-12-29T08:20:15;18.00;50.80
11989;DHT22;6054;50.966;7.094;2023-12-29T08:22:42;17.90;51.20
11989;DHT22;6054;50.966;7.094;2023-12-29T08:25:09;17.90;51.50
11989;DHT22;6054;50.966;7.094;2023-12-29T08:27:37;17.80;51.50
11989;DHT22;6054;50.966;7.094;2023-12-29T08:30:05;17.80;51.70
11989;DHT22;6054;50.966;7.094;2023-12-29T08:32:33;17.80;52.50
11989;DHT22;6054;50.966;7.094;2023-12-29T08:35:00;17.70;52.40
11989;DHT22;6054;50.966;7.094;2023-12-29T08:37:26;17.40;52.40
11989;DHT22;6054;50.966;7.094;2023-12-29T08:39:53;17.20;53.10
11989;DHT22;6054;50.966;7.094;2023-12-29T08:42:21;17.10;53.40
11989;DHT22;6054;50.966;7.094;2023-12-29T08:44:49;17.00;54.30
11989;DHT22;6054;50.966;7.094;2023-12-29T08:47:16;16.90;54.30
11989;DHT22;6054;50.966;7.094;2023-12-29T08:49:42;16.90;54.60
11989;DHT22;6054;50.966;7.094;2023-12-29T08:52:09;16.80;54.70
11989;DHT22;6054;50.966;7.094;2023-12-29T08:54:36;16.80;54.90
11989;DHT22;6054;50.966;7.094;2023-12-29T08:57:03;16.80;55.60
11989;DHT22;6054;50.966;7.094;2023-12-29T08:59:32;16.90;55.30
11989;DHT22;6054;50.966;7.094;2023-12-29T09:02:00;16.90;55.90
11989;DHT22;6054;50.966;7.094;2023-12-29T09:04:27;17.20;56.50
11989;DHT22;6054;50.966;7.094;2023-12-29T09:06:53;16.90;56.30
11989;DHT22;6054;50.966;7.094;2023-12-29T09:09:21;16.90;56.60
11989;DHT22;6054;50.966;7.094;2023-12-29T09:11:47;16.90;56.80
11989;DHT22;6054;50.966;7.094;2023-12-29T09:14:14;16.90;56.80
11989;DHT22;6054;50.966;7.094;2023-12-29T09:16:41;16.90;57.40
11989;DHT22;6054;50.966;7.094;2023-12-29T09:19:13;16.90;57.70
11989;DHT22;6054;50.966;7.094;2023-12-29T09:21:39;17.00;57.60
11989;DHT22;6054;50.966;7.094;2023-12-29T09:24:06;16.90;57.70
11989;DHT22;6054;50.966;7.094;2023-12-29T09:26:33;16.90;57.90
11989;DHT22;6054;50.966;7.094;2023-12-29T09:29:00;17.30;58.30
11989;DHT22;6054;50.966;7.094;2023-12-29T09:31:27;16.90;58.30
11989;DHT22;6054;50.966;7.094;2023-12-29T09:33:54;16.90;58.20
11989;DHT22;6054;50.966;7.094;2023-12-29T09:36:23;17.00;58.40
11989;DHT22;6054;50.966;7.094;2023-12-29T09:38:50;17.00;58.60
11989;DHT22;6054;50.966;7.094;2023-12-29T09:41:18;16.90;58.20
11989;DHT22;6054;50.966;7.094;2023-12-29T09:43:48;16.90;59.50
11989;DHT22;6054;50.966;7.094;2023-12-29T09:46:17;16.90;59.30
11989;DHT22;6054;50.966;7.094;2023-12-29T09:48:45;16.80;59.80
11989;DHT22;6054;50.966;7.094;2023-12-29T09:51:13;16.90;60.30
11989;DHT22;6054;50.966;7.094;2023-12-29T09:53:42;16.90;60.70
11989;DHT22;6054;50.966;7.094;2023-12-29T09:56:09;17.20;60.10
11989;DHT22;6054;50.966;7.094;2023-12-29T09:58:35;17.10;60.20
11989;DHT22;6054;50.966;7.094;2023-12-29T10:01:04;17.20;61.20
11989;DHT22;6054;50.966;7.094;2023-12-29T10:03:32;16.90;61.20
11989;DHT22;6054;50.966;7.094;2023-12-29T10:06:00;17.00;60.90
11989;DHT22;6054;50.966;7.094;2023-12-29T10:08:33;17.00;61.30
11989;DHT22;6054;50.966;7.094;2023-12-29T10:11:02;17.00;61.20
11989;DHT22;6054;50.966;7.094;2023-12-29T10:13:31;17.00;61.40
11989;DHT22;6054;50.966;7.094;2023-12-29T10:16:08;17.00;61.20
11989;DHT22;6054;50.966;7.094;2023-12-29T10:18:44;17.00;61.20
11989;DHT22;6054;50.966;7.094;2023-12-29T10:21:21;16.90;61.60
11989;DHT22;6054;50.966;7.094;2023-12-29T10:23:56;17.00;62.10
11989;DHT22;6054;50.966;7.094;2023-12-29T10:26:26;17.00;62.00
11989;DHT22;6054;50.966;7.094;2023-12-29T10:28:53;16.90;61.00
11989;DHT22;6054;50.966;7.094;2023-12-29T10:31:19;16.90;61.30
11989;DHT22;6054;50.966;7.094;2023-12-29T10:33:46;16.90;61.10
11989;DHT22;6054;50.966;7.094;2023-12-29T10:36:16;17.00;61.90
11989;DHT22;6054;50.966;7.094;2023-12-29T10:38:43;17.00;61.70
11989;DHT22;6054;50.966;7.094;2023-12-29T10:41:13;17.00;61.90
11989;DHT22;6054;50.966;7.094;2023-12-29T10:43:43;17.00;62.50
11989;DHT22;6054;50.966;7.094;2023-12-29T10:46:10;17.00;62.60
11989;DHT22;6054;50.966;7.094;2023-12-29T10:48:38;17.10;62.90
11989;DHT22;6054;50.966;7.094;2023-12-29T10:51:05;17.10;62.60
11989;DHT22;6054;50.966;7.094;2023-12-29T10:53:33;17.20;62.80
11989;DHT22;6054;50.966;7.094;2023-12-29T10:56:00;17.20;62.70
11989;DHT22;6054;50.966;7.094;2023-12-29T10:58:26;17.20;61.80
11989;DHT22;6054;50.966;7.094;2023-12-29T11:00:56;17.20;62.00
11989;DHT22;6054;50.966;7.094;2023-12-29T11:03:23;17.20;62.10
11989;DHT22;6054;50.966;7.094;2023-12-29T11:05:51;17.30;61.70
11989;DHT22;6054;50.966;7.094;2023-12-29T11:08:25;17.60;63.00
11989;DHT22;6054;50.966;7.094;2023-12-29T11:10:54;17.30;62.80
11989;DHT22;6054;50.966;7.094;2023-12-29T11:13:21;17.30;63.40
11989;DHT22;6054;50.966;7.094;2023-12-29T11:15:48;17.30;62.00
11989;DHT22;6054;50.966;7.094;2023-12-29T11:18:18;17.30;61.90
11989;DHT22;6054;50.966;7.094;2023-12-29T11:20:45;17.30;61.10
11989;DHT22;6054;50.966;7.094;2023-12-29T11:23:13;17.30;61.70
11989;DHT22;6054;50.966;7.094;2023-12-29T11:25:40;17.40;61.70
11989;DHT22;6054;50.966;7.094;2023-12-29T11:28:09;17.40;61.90
11989;DHT22;6054;50.966;7.094;2023-12-29T11:30:37;17.30;62.10
11989;DHT22;6054;50.966;7.094;2023-12-29T11:33:08;17.40;62.00
11989;DHT22;6054;50.966;7.094;2023-12-29T11:35:42;17.40;62.60
11989;DHT22;6054;50.966;7.094;2023-12-29T11:38:29;17.50;62.70
11989;DHT22;6054;50.966;7.094;2023-12-29T11:41:05;17.50;62.70
11989;DHT22;6054;50.966;7.094;2023-12-29T11:43:34;17.80;62.70
11989;DHT22;6054;50.966;7.094;2023-12-29T11:46:01;17.60;62.20
11989;DHT22;6054;50.966;7.094;2023-12-29T11:48:52;17.60;61.40
11989;DHT22;6054;50.966;7.094;2023-12-29T11:51:32;17.70;62.30
11989;DHT22;6054;50.966;7.094;2023-12-29T11:54:03;17.70;62.40
11989;DHT22;6054;50.966;7.094;2023-12-29T11:56:33;17.80;62.60
11989;DHT22;6054;50.966;7.094;2023-12-29T11:59:18;17.70;62.30
11989;DHT22;6054;50.966;7.094;2023-12-29T12:01:48;17.80;61.80
11989;DHT22;6054;50.966;7.094;2023-12-29T12:04:37;17.80;61.90
11989;DHT22;6054;50.966;7.094;2023-12-29T12:07:16;17.90;61.70
11989;DHT22;6054;50.966;7.094;2023-12-29T12:09:43;17.90;61.30
11989;DHT22;6054;50.966;7.094;2023-12-29T12:12:40;17.90;61.60
11989;DHT22;6054;50.966;7.094;2023-12-29T12:15:32;17.90;61.50
11989;DHT22;6054;50.966;7.094;2023-12-29T12:18:00;17.90;61.80
11989;DHT22;6054;50.966;7.094;2023-12-29T12:20:31;17.90;61.40
11989;DHT22;6054;50.966;7.094;2023-12-29T12:23:03;18.00;61.20
11989;DHT22;6054;50.966;7.094;2023-12-29T12:25:31;17.90;61.10
11989;DHT22;6054;50.966;7.094;2023-12-29T12:28:01;17.90;60.80
11989;DHT22;6054;50.966;7.094;2023-12-29T12:30:34;17.90;61.20
11989;DHT22;6054;50.966;7.094;2023-12-29T12:33:03;18.00;61.50
11989;DHT22;6054;50.966;7.094;2023-12-29T12:35:31;18.00;61.70
11989;DHT22;6054;50.966;7.094;2023-12-29T12:38:13;18.10;60.60
11989;DHT22;6054;50.966;7.094;2023-12-29T12:40:42;18.10;60.20
11989;DHT22;6054;50.966;7.094;2023-12-29T12:43:13;18.20;60.00
11989;DHT22;6054;50.966;7.094;2023-12-29T12:45:47;18.00;60.30
11989;DHT22;6054;50.966;7.094;2023-12-29T12:48:21;18.00;60.80
11989;DHT22;6054;50.966;7.094;2023-12-29T12:50:50;18.00;60.00
11989;DHT22;6054;50.966;7.094;2023-12-29T12:53:20;18.10;59.40
11989;DHT22;6054;50.966;7.094;2023-12-29T12:55:48;18.10;58.70
11989;DHT22;6054;50.966;7.094;2023-12-29T12:58:17;18.00;59.40
11989;DHT22;6054;50.966;7.094;2023-12-29T13:00:48;18.10;60.20
11989;DHT22;6054;50.966;7.094;2023-12-29T13:03:16;18.10;60.60
11989;DHT22;6054;50.966;7.094;2023-12-29T13:05:44;18.10;60.20
11989;DHT22;6054;50.966;7.094;2023-12-29T13:08:12;18.10;60.00
11989;DHT22;6054;50.966;7.094;2023-12-29T13:10:45;18.10;59.40
11989;DHT22;6054;50.966;7.094;2023-12-29T13:13:12;18.20;59.90
11989;DHT22;6054;50.966;7.094;2023-12-29T13:15:46;18.40;59.50
11989;DHT22;6054;50.966;7.094;2023-12-29T13:18:14;18.30;60.00
11989;DHT22;6054;50.966;7.094;2023-12-29T13:20:44;18.20;59.50
11989;DHT22;6054;50.966;7.094;2023-12-29T13:23:12;18.10;60.00
11989;DHT22;6054;50.966;7.094;2023-12-29T13:25:39;18.20;59.30
11989;DHT22;6054;50.966;7.094;2023-12-29T13:28:08;18.20;58.60
11989;DHT22;6054;50.966;7.094;2023-12-29T13:30:37;18.20;58.80
11989;DHT22;6054;50.966;7.094;2023-12-29T13:33:08;18.20;59.40
11989;DHT22;6054;50.966;7.094;2023-12-29T13:35:39;18.40;59.80
11989;DHT22;6054;50.966;7.094;2023-12-29T13:38:15;18.20;59.80
11989;DHT22;6054;50.966;7.094;2023-12-29T13:40:51;18.20;59.80
11989;DHT22;6054;50.966;7.094;2023-12-29T13:43:21;18.50;60.40
11989;DHT22;6054;50.966;7.094;2023-12-29T13:45:49;18.40;60.00
11989;DHT22;6054;50.966;7.094;2023-12-29T13:48:16;18.20;59.50
11989;DHT22;6054;50.966;7.094;2023-12-29T13:50:45;18.30;58.50
11989;DHT22;6054;50.966;7.094;2023-12-29T13:53:16;18.20;59.30
11989;DHT22;6054;50.966;7.094;2023-12-29T13:55:44;18.30;59.70
11989;DHT22;6054;50.966;7.094;2023-12-29T13:58:11;18.30;59.30
11989;DHT22;6054;50.966;7.094;2023-12-29T14:00:40;18.30;58.90
11989;DHT22;6054;50.966;7.094;2023-12-29T14:03:11;18.30;58.90
11989;DHT22;6054;50.966;7.094;2023-12-29T14:05:48;18.30;58.60
11989;DHT22;6054;50.966;7.094;2023-12-29T14:08:18;18.30;59.00
11989;DHT22;6054;50.966;7.094;2023-12-29T14:10:46;18.20;57.90
11989;DHT22;6054;50.966;7.094;2023-12-29T14:13:14;18.20;57.30
11989;DHT22;6054;50.966;7.094;2023-12-29T14:15:45;18.30;58.40
11989;DHT22;6054;50.966;7.094;2023-12-29T14:18:32;18.30;58.70
11989;DHT22;6054;50.966;7.094;2023-12-29T14:21:20;18.20;58.70
11989;DHT22;6054;50.966;7.094;2023-12-29T14:24:00;18.20;58.90
11989;DHT22;6054;50.966;7.094;2023-12-29T14:26:27;18.20;59.10
11989;DHT22;6054;50.966;7.094;2023-12-29T14:29:02;18.30;58.70
11989;DHT22;6054;50.966;7.094;2023-12-29T14:31:34;18.00;59.10
11989;DHT22;6054;50.966;7.094;2023-12-29T14:34:01;18.00;59.60
11989;DHT22;6054;50.966;7.094;2023-12-29T14:36:28;18.00;59.30
11989;DHT22;6054;50.966;7.094;2023-12-29T14:38:55;17.90;59.70
11989;DHT22;6054;50.966;7.094;2023-12-29T14:41:22;17.80;59.60
11989;DHT22;6054;50.966;7.094;2023-12-29T14:43:49;17.90;60.10
11989;DHT22;6054;50.966;7.094;2023-12-29T14:46:16;17.90;60.00
11989;DHT22;6054;50.966;7.094;2023-12-29T14:48:44;17.90;60.80
11989;DHT22;6054;50.966;7.094;2023-12-29T14:51:11;17.90;61.00
11989;DHT22;6054;50.966;7.094;2023-12-29T14:53:38;18.20;60.90
11989;DHT22;6054;50.966;7.094;2023-12-29T14:56:05;18.10;61.70
11989;DHT22;6054;50.966;7.094;2023-12-29T14:58:32;17.90;62.00
11989;DHT22;6054;50.966;7.094;2023-12-29T15:00:59;17.90;61.90
11989;DHT22;6054;50.966;7.094;2023-12-29T15:03:25;18.00;62.00
11989;DHT22;6054;50.966;7.094;2023-12-29T15:05:54;18.00;62.00
11989;DHT22;6054;50.966;7.094;2023-12-29T15:08:21;18.00;62.40
11989;DHT22;6054;50.966;7.094;2023-12-29T15:10:49;18.00;61.60
11989;DHT22;6054;50.966;7.094;2023-12-29T15:13:16;18.30;62.00
11989;DHT22;6054;50.966;7.094;2023-12-29T15:15:42;18.00;61.30
11989;DHT22;6054;50.966;7.094;2023-12-29T15:18:09;18.00;61.60
11989;DHT22;6054;50.966;7.094;2023-12-29T15:20:36;18.00;61.60
11989;DHT22;6054;50.966;7.094;2023-12-29T15:23:04;18.00;61.40
11989;DHT22;6054;50.966;7.094;2023-12-29T15:25:31;18.00;61.30
11989;DHT22;6054;50.966;7.094;2023-12-29T15:27:59;18.10;59.90
11989;DHT22;6054;50.966;7.094;2023-12-29T15:30:29;18.00;58.90
11989;DHT22;6054;50.966;7.094;2023-12-29T15:33:05;18.00;59.60
11989;DHT22;6054;50.966;7.094;2023-12-29T15:35:32;18.10;58.70
11989;DHT22;6054;50.966;7.094;2023-12-29T15:37:59;18.30;58.90
11989;DHT22;6054;50.966;7.094;2023-12-29T15:40:30;18.10;60.70
11989;DHT22;6054;50.966;7.094;2023-12-29T15:42:58;18.30;60.20
11989;DHT22;6054;50.966;7.094;2023-12-29T15:45:25;18.00;59.40
11989;DHT22;6054;50.966;7.094;2023-12-29T15:47:52;18.00;58.90
11989;DHT22;6054;50.966;7.094;2023-12-29T15:50:19;17.90;59.80
11989;DHT22;6054;50.966;7.094;2023-12-29T15:52:48;18.20;59.40